Time;durP1;ratioP1;P1;durP2;ratioP2;P2;SDS_P1;SDS_P2;PMS_P1;PMS_P2;Temp;Humidity;BMP_temperature;BMP_pressure;BME280_temperature;BME280_humidity;BME280_pressure;Samples;Min_cycle;Max_cycle;Signal;HPM_P1;HPM_P2
2023/06/04 00:00:45;;;;;;;3.80;2.50;;;;;;;;;;21006252;28;20101;-66
2023/06/04 00:10:46;;;;;;;4.85;3.08;;;;;;;;;;21005747;28;20105;-66
2023/06/04 00:20:47;;;;;;;5.00;2.50;;;;;;;;;;21004719;28;20041;-65
2023/06/04 00:30:49;;;;;;;3.90;2.60;;;;;;;;;;21003558;28;20052;-66
2023/06/04 00:40:50;;;;;;;4.05;2.60;;;;;;;;;;21002620;28;20096;-66
2023/06/04 00:50:51;;;;;;;3.78;2.33;;;;;;;;;;21001558;28;20044;-66
2023/06/04 01:00:56;;;;;;;5.47;2.75;;;;;;;;;;21001045;28;20123;-66
2023/06/04 01:10:58;;;;;;;4.55;2.50;;;;;;;;;;21000729;28;20056;-66
2023/06/04 01:21:03;;;;;;;6.18;3.22;;;;;;;;;;20999200;28;20080;-66
2023/06/04 01:31:07;;;;;;;5.63;3.47;;;;;;;;;;20998701;28;20075;-65
2023/06/04 01:41:08;;;;;;;6.90;3.97;;;;;;;;;;20999155;28;20045;-66
2023/06/04 01:51:09;;;;;;;4.63;3.40;;;;;;;;;;20998116;28;20044;-66
2023/06/04 02:01:10;;;;;;;5.82;4.32;;;;;;;;;;20996792;28;20127;-66
2023/06/04 02:11:11;;;;;;;5.25;3.30;;;;;;;;;;20997406;28;20059;-66
2023/06/04 02:21:12;;;;;;;7.88;3.80;;;;;;;;;;20996999;28;20041;-66
2023/06/04 02:31:14;;;;;;;6.80;4.07;;;;;;;;;;20996877;28;20064;-66
2023/06/04 02:41:15;;;;;;;6.13;3.70;;;;;;;;;;20996461;28;20048;-66
2023/06/04 02:51:17;;;;;;;6.18;3.60;;;;;;;;;;20995707;28;20133;-66
2023/06/04 03:01:19;;;;;;;5.38;3.80;;;;;;;;;;20993632;28;20059;-66
2023/06/04 03:11:21;;;;;;;6.45;3.78;;;;;;;;;;20994456;28;20053;-65
2023/06/04 03:21:22;;;;;;;6.78;4.20;;;;;;;;;;20994269;28;20517;-66
2023/06/04 03:31:23;;;;;;;5.15;4.25;;;;;;;;;;20998916;28;20505;-66
2023/06/04 03:41:26;;;;;;;6.47;4.22;;;;;;;;;;21006679;28;20055;-66
2023/06/04 03:51:27;;;;;;;5.72;3.90;;;;;;;;;;21005380;28;20041;-66
2023/06/04 04:01:28;;;;;;;5.57;3.70;;;;;;;;;;21006686;28;20051;-66
2023/06/04 04:11:29;;;;;;;5.75;3.60;;;;;;;;;;21006405;28;20067;-66
2023/06/04 04:21:30;;;;;;;4.90;3.83;;;;;;;;;;21005471;28;20056;-66
2023/06/04 04:31:31;;;;;;;5.88;4.28;;;;;;;;;;21004003;28;20055;-66
2023/06/04 04:41:32;;;;;;;5.72;4.13;;;;;;;;;;21003149;28;20059;-66
2023/06/04 04:51:34;;;;;;;5.75;4.18;;;;;;;;;;21003242;28;20051;-66
2023/06/04 05:01:35;;;;;;;6.95;4.20;;;;;;;;;;21002501;28;20162;-66
2023/06/04 05:11:36;;;;;;;6.03;4.10;;;;;;;;;;21001604;28;20105;-66
2023/06/04 05:21:37;;;;;;;8.13;4.25;;;;;;;;;;21000931;28;20048;-66
2023/06/04 05:31:39;;;;;;;6.18;4.38;;;;;;;;;;20998571;28;20413;-66
2023/06/04 05:41:40;;;;;;;8.05;4.15;;;;;;;;;;20999369;28;20531;-66
2023/06/04 05:51:42;;;;;;;7.43;4.57;;;;;;;;;;20998194;28;20094;-65
2023/06/04 06:01:43;;;;;;;5.97;4.15;;;;;;;;;;20998053;28;20051;-66
2023/06/04 06:11:44;;;;;;;6.07;3.92;;;;;;;;;;20997509;28;20048;-66
2023/06/04 06:21:45;;;;;;;5.22;3.88;;;;;;;;;;20995963;28;20055;-65
2023/06/04 06:31:46;;;;;;;5.35;3.45;;;;;;;;;;20997433;28;20485;-66
2023/06/04 06:41:47;;;;;;;5.30;3.20;;;;;;;;;;20995651;28;20076;-66
2023/06/04 06:51:49;;;;;;;5.72;3.50;;;;;;;;;;20996007;28;20049;-66
2023/06/04 07:01:50;;;;;;;6.20;3.70;;;;;;;;;;20995345;28;20397;-66
2023/06/04 07:11:51;;;;;;;5.32;3.97;;;;;;;;;;21008808;28;20040;-66
2023/06/04 07:21:55;;;;;;;5.65;3.75;;;;;;;;;;21008406;28;20045;-67
2023/06/04 07:31:56;;;;;;;6.50;3.28;;;;;;;;;;21007522;28;20053;-66
2023/06/04 07:41:57;;;;;;;4.70;3.42;;;;;;;;;;21008400;28;20489;-67
2023/06/04 07:51:58;;;;;;;4.38;3.38;;;;;;;;;;21005950;28;20048;-66
2023/06/04 08:02:00;;;;;;;6.72;3.42;;;;;;;;;;21006277;28;20051;-67
2023/06/04 08:12:01;;;;;;;7.15;4.22;;;;;;;;;;21004970;28;20056;-66
2023/06/04 08:22:02;;;;;;;5.78;2.67;;;;;;;;;;21004470;28;20059;-67
2023/06/04 08:32:03;;;;;;;6.53;3.05;;;;;;;;;;21002523;28;20049;-66
2023/06/04 08:42:07;;;;;;;5.85;3.33;;;;;;;;;;21003529;28;20098;-66
2023/06/04 08:52:08;;;;;;;5.00;2.97;;;;;;;;;;21002190;28;20047;-67
2023/06/04 09:02:10;;;;;;;4.88;2.85;;;;;;;;;;21001013;28;20049;-66
2023/06/04 09:12:12;;;;;;;4.50;3.08;;;;;;;;;;20999585;28;20063;-66
2023/06/04 09:22:13;;;;;;;6.43;3.10;;;;;;;;;;20997863;28;20394;-66
2023/06/04 09:32:14;;;;;;;5.55;2.90;;;;;;;;;;20998111;28;20551;-66
2023/06/04 09:42:15;;;;;;;4.20;2.97;;;;;;;;;;20996340;28;20040;-66
2023/06/04 09:52:17;;;;;;;4.65;3.35;;;;;;;;;;20997672;28;20049;-67
2023/06/04 10:02:21;;;;;;;5.80;2.88;;;;;;;;;;20996362;28;20044;-67
2023/06/04 10:12:31;;;;;;;7.28;2.90;;;;;;;;;;20994836;28;20533;-66
2023/06/04 10:22:33;;;;;;;7.13;3.53;;;;;;;;;;20993237;28;20048;-66
2023/06/04 10:32:35;;;;;;;6.18;3.58;;;;;;;;;;20993375;28;20405;-66
2023/06/04 10:42:40;;;;;;;4.47;2.85;;;;;;;;;;21001366;28;20051;-66
2023/06/04 10:52:58;;;;;;;6.90;3.25;;;;;;;;;;21010085;28;20503;-68
2023/06/04 11:02:59;;;;;;;4.47;3.03;;;;;;;;;;21010483;28;20490;-66
2023/06/04 11:13:00;;;;;;;6.18;3.85;;;;;;;;;;21009158;28;20049;-66
2023/06/04 11:23:03;;;;;;;3.63;2.35;;;;;;;;;;21007817;28;20056;-67
2023/06/04 11:33:05;;;;;;;4.68;2.80;;;;;;;;;;21006514;28;20107;-67
2023/06/04 11:43:06;;;;;;;5.57;2.92;;;;;;;;;;21005731;28;20044;-67
2023/06/04 11:53:08;;;;;;;7.57;3.10;;;;;;;;;;21006307;28;20124;-66
2023/06/04 12:03:09;;;;;;;6.00;2.95;;;;;;;;;;21005820;28;20175;-67
2023/06/04 12:13:11;;;;;;;4.78;2.67;;;;;;;;;;21005558;28;20083;-65
2023/06/04 12:23:20;;;;;;;4.82;2.92;;;;;;;;;;21004385;28;20082;-67
2023/06/04 12:33:21;;;;;;;7.28;2.60;;;;;;;;;;21002841;28;20045;-66
2023/06/04 12:43:22;;;;;;;6.50;2.45;;;;;;;;;;21003419;28;20052;-67
2023/06/04 12:53:23;;;;;;;8.18;2.30;;;;;;;;;;21001322;28;20044;-67
2023/06/04 13:03:24;;;;;;;3.58;2.47;;;;;;;;;;20997989;28;20127;-66
2023/06/04 13:13:25;;;;;;;3.90;2.20;;;;;;;;;;20998161;28;20044;-66
2023/06/04 13:23:26;;;;;;;3.55;2.15;;;;;;;;;;20999759;28;20042;-63
2023/06/04 13:33:27;;;;;;;4.05;2.78;;;;;;;;;;20997566;28;20062;-61
2023/06/04 13:43:28;;;;;;;24.13;3.78;;;;;;;;;;20998372;28;20080;-63
2023/06/04 13:53:29;;;;;;;8.20;2.85;;;;;;;;;;20996668;28;20047;-65
2023/06/04 14:03:31;;;;;;;4.68;2.55;;;;;;;;;;20996073;28;20044;-62
2023/06/04 14:13:32;;;;;;;4.05;2.28;;;;;;;;;;20994990;28;20055;-68
2023/06/04 14:23:33;;;;;;;7.43;2.03;;;;;;;;;;20996264;28;20110;-64
2023/06/04 14:33:35;;;;;;;3.83;2.20;;;;;;;;;;20994117;28;20091;-64
2023/06/04 14:43:36;;;;;;;3.85;2.10;;;;;;;;;;20995196;28;20121;-64
2023/06/04 14:53:39;;;;;;;2.90;1.92;;;;;;;;;;20993918;28;20036;-65
2023/06/04 15:03:40;;;;;;;4.97;2.05;;;;;;;;;;20994772;28;20517;-63
2023/06/04 15:13:41;;;;;;;3.85;2.00;;;;;;;;;;20994375;28;20076;-65
2023/06/04 15:23:44;;;;;;;3.50;1.63;;;;;;;;;;20994144;28;20049;-64
2023/06/04 15:33:45;;;;;;;2.85;1.80;;;;;;;;;;21007007;28;20052;-63
2023/06/04 15:43:46;;;;;;;3.33;2.00;;;;;;;;;;21006729;28;20069;-63
2023/06/04 15:53:47;;;;;;;2.85;1.55;;;;;;;;;;21005762;28;20040;-64
2023/06/04 16:03:48;;;;;;;2.67;1.80;;;;;;;;;;21005958;28;20106;-64
2023/06/04 16:13:49;;;;;;;3.45;1.70;;;;;;;;;;21004657;28;20098;-64
2023/06/04 16:23:51;;;;;;;2.67;1.85;;;;;;;;;;21004094;28;20502;-63
2023/06/04 16:33:52;;;;;;;3.20;1.73;;;;;;;;;;21001112;28;20517;-64
2023/06/04 16:43:53;;;;;;;4.28;1.70;;;;;;;;;;21002350;28;20516;-64
2023/06/04 16:53:54;;;;;;;21.77;13.98;;;;;;;;;;21001488;28;20509;-64
2023/06/04 17:03:55;;;;;;;3.58;2.47;;;;;;;;;;21000184;28;20052;-64
2023/06/04 17:13:56;;;;;;;2.33;1.38;;;;;;;;;;21000625;28;20514;-64
2023/06/04 17:23:57;;;;;;;3.25;1.50;;;;;;;;;;20997593;28;20048;-64
2023/06/04 17:33:58;;;;;;;3.83;2.17;;;;;;;;;;20999292;28;20056;-65
2023/06/04 17:44:00;;;;;;;3.85;1.80;;;;;;;;;;20997952;28;20508;-63
2023/06/04 17:54:01;;;;;;;2.05;1.55;;;;;;;;;;20997462;28;20044;-64
2023/06/04 18:04:03;;;;;;;2.00;0.80;;;;;;;;;;20996464;28;20053;-65
2023/06/04 18:14:04;;;;;;;1.67;1.20;;;;;;;;;;20996180;28;20049;-64
2023/06/04 18:24:06;;;;;;;2.58;1.63;;;;;;;;;;20995286;28;20052;-63
2023/06/04 18:34:09;;;;;;;7.07;3.30;;;;;;;;;;20994137;28;20139;-65
2023/06/04 18:44:10;;;;;;;3.22;2.35;;;;;;;;;;20994985;28;20125;-64
2023/06/04 18:54:12;;;;;;;3.08;2.20;;;;;;;;;;20995327;28;20504;-64
2023/06/04 19:04:14;;;;;;;5.70;2.60;;;;;;;;;;21003586;28;20098;-64
2023/06/04 19:14:15;;;;;;;2.40;1.85;;;;;;;;;;21008769;28;20131;-64
2023/06/04 19:24:16;;;;;;;4.15;2.25;;;;;;;;;;21007996;28;20044;-64
2023/06/04 19:34:17;;;;;;;4.18;2.15;;;;;;;;;;21008846;28;20055;-64
2023/06/04 19:44:18;;;;;;;5.03;2.80;;;;;;;;;;21006229;28;20131;-65
2023/06/04 19:54:19;;;;;;;3.63;2.22;;;;;;;;;;21007368;28;20044;-64
2023/06/04 20:04:21;;;;;;;6.45;2.15;;;;;;;;;;21007066;28;20127;-64
2023/06/04 20:14:22;;;;;;;4.38;2.00;;;;;;;;;;21005181;28;20044;-64
2023/06/04 20:24:23;;;;;;;4.55;2.45;;;;;;;;;;21005095;28;20433;-65
2023/06/04 20:34:24;;;;;;;4.57;2.63;;;;;;;;;;21004980;28;20056;-63
2023/06/04 20:44:25;;;;;;;6.45;2.85;;;;;;;;;;21003732;28;20044;-64
2023/06/04 20:54:27;;;;;;;6.30;3.47;;;;;;;;;;21001590;28;20067;-64
2023/06/04 21:04:28;;;;;;;6.03;3.42;;;;;;;;;;21000600;28;20113;-63
2023/06/04 21:14:29;;;;;;;5.35;3.25;;;;;;;;;;21000029;28;20111;-63
2023/06/04 21:24:30;;;;;;;5.03;2.72;;;;;;;;;;20998658;28;20040;-64
2023/06/04 21:34:31;;;;;;;4.60;2.25;;;;;;;;;;20999521;28;20084;-64
2023/06/04 21:44:32;;;;;;;5.75;2.50;;;;;;;;;;20998495;28;20123;-64
2023/06/04 21:54:33;;;;;;;4.15;2.30;;;;;;;;;;20998386;28;20040;-63
2023/06/04 22:04:34;;;;;;;4.65;2.50;;;;;;;;;;20998371;28;20574;-64
2023/06/04 22:14:37;;;;;;;5.78;2.40;;;;;;;;;;20996595;28;20075;-63
2023/06/04 22:24:38;;;;;;;3.00;2.08;;;;;;;;;;20996037;28;20051;-64
2023/06/04 22:34:39;;;;;;;7.15;2.45;;;;;;;;;;21001506;28;20053;-64
2023/06/04 22:44:40;;;;;;;4.82;2.58;;;;;;;;;;21022918;28;20045;-64
2023/06/04 22:54:41;;;;;;;5.72;2.70;;;;;;;;;;21022074;28;20420;-64
2023/06/04 23:04:46;;;;;;;6.20;3.50;;;;;;;;;;21021447;28;20045;-63
2023/06/04 23:14:47;;;;;;;4.68;3.45;;;;;;;;;;21020010;28;20044;-64
2023/06/04 23:24:48;;;;;;;4.72;3.50;;;;;;;;;;21021557;28;20058;-64
2023/06/04 23:34:49;;;;;;;6.82;3.80;;;;;;;;;;21018983;28;20148;-64
2023/06/04 23:44:50;;;;;;;4.70;2.80;;;;;;;;;;21019083;28;20481;-63
2023/06/04 23:54:51;;;;;;;5.63;3.05;;;;;;;;;;21006520;28;20044;-64
